Hlavní strana
METAR-TAF:

METAR-TAF

Letiště :

Marshall County Airport

Lacon, Illinois, Spojené státy americké

zeměpisná šířka: 41-01-09N, zeměpisná délka: 089-23-11W, výška: 173 m

Aktuální stav počasí

Zpráva byla vytvořena před 19 minutami, v 01:15 UTC
Severní vítr 8 kt s nárazy do 15 kt
Teplota 0°C
Vlhkost vzduchu 100%
Tlak 1018 hPa
Viditelnost: 6.4 km
Oblačno až skoro zataženo ve výšce 900 ft
Zataženo ve výšce 1500 ft
déšť

METAR: KC75 260115Z AUTO 01008G15KT 4SM RA BKN009 OVC015 00/00 A3007 RMK AO2 T00001005

Čas: 19:34 (01:34 UTC)


TAF: chybějící

Stav a předpovědi počasí z více než 4 000 letišť (zprávy METAR a TAF).

Červené a žluté tečky na mapě představují dostupné meteorologické stanice.

Když kurzor umístíte na tečku, zobrazí se název stanice.

Pak kliknutím zobrazíte stav a předpověď počasí.

Chcete-li změnit mapu, kliknutím na zelené tlačítko se znaménkem +mapu přiblížíte, kliknutím na zelené tlačítko se znaménkem – mapu oddálíte a kliknutím na zelené šipky přejdete na sousední mapy.


METAR-TAF: